Time;durP1;ratioP1;P1;durP2;ratioP2;P2;SDS_P1;SDS_P2;PMS_P1;PMS_P2;Temp;Humidity;BMP_temperature;BMP_pressure;BME280_temperature;BME280_humidity;BME280_pressure;Samples;Min_cycle;Max_cycle;Signal;HPM_P1;HPM_P2
2022/09/02 00:02:00;;;;;;;2.42;1.05;;;;;;;;;;4990655;28;98639;-69
2022/09/02 00:04:27;;;;;;;1.42;1.10;;;;;;;;;;4993006;28;99056;-69
2022/09/02 00:06:53;;;;;;;1.30;0.95;;;;;;;;;;4991037;28;100193;-69
2022/09/02 00:09:21;;;;;;;1.98;1.10;;;;;;;;;;4991048;28;98515;-69
2022/09/02 00:11:47;;;;;;;4.63;1.08;;;;;;;;;;4999650;28;100532;-69
2022/09/02 00:14:21;;;;;;;1.35;1.20;;;;;;;;;;4994712;28;99509;-69
2022/09/02 00:16:50;;;;;;;1.48;1.10;;;;;;;;;;4990175;28;99802;-70
2022/09/02 00:19:20;;;;;;;5.03;1.00;;;;;;;;;;4990950;28;99139;-69
2022/09/02 00:21:46;;;;;;;1.15;1.10;;;;;;;;;;4990800;28;98528;-69
2022/09/02 00:24:13;;;;;;;6.30;1.35;;;;;;;;;;4990948;28;99113;-69
2022/09/02 00:26:39;;;;;;;2.60;1.05;;;;;;;;;;4990630;28;99804;-69
2022/09/02 00:29:06;;;;;;;1.23;1.10;;;;;;;;;;4992399;28;97734;-69
2022/09/02 00:31:32;;;;;;;4.22;1.50;;;;;;;;;;4990838;28;98464;-69
2022/09/02 00:33:59;;;;;;;2.58;1.10;;;;;;;;;;4992774;28;101939;-69
2022/09/02 00:36:25;;;;;;;11.57;1.45;;;;;;;;;;4990953;28;99785;-69
2022/09/02 00:38:52;;;;;;;0.95;0.95;;;;;;;;;;4988558;28;99722;-69
2022/09/02 00:41:20;;;;;;;1.35;1.08;;;;;;;;;;5020522;28;99462;-69
2022/09/02 00:43:52;;;;;;;2.63;1.10;;;;;;;;;;4972871;28;98884;-69
2022/09/02 00:46:20;;;;;;;3.42;1.20;;;;;;;;;;4974666;28;100140;-69
2022/09/02 00:48:48;;;;;;;4.00;0.90;;;;;;;;;;4990916;28;98637;-69
2022/09/02 00:51:15;;;;;;;2.65;1.40;;;;;;;;;;4990529;28;98631;-69
2022/09/02 00:53:43;;;;;;;7.13;0.98;;;;;;;;;;4989583;28;98892;-69
2022/09/02 00:56:12;;;;;;;5.20;1.15;;;;;;;;;;4994416;28;98491;-69
2022/09/02 00:58:41;;;;;;;2.13;1.10;;;;;;;;;;4989751;28;99366;-69
2022/09/02 01:01:10;;;;;;;0.90;0.90;;;;;;;;;;4990713;28;99225;-69
2022/09/02 01:03:38;;;;;;;7.22;0.90;;;;;;;;;;4991206;28;100691;-69
2022/09/02 01:06:04;;;;;;;4.65;1.10;;;;;;;;;;4989887;28;99075;-69
2022/09/02 01:08:33;;;;;;;5.65;1.10;;;;;;;;;;4991148;28;98836;-69
2022/09/02 01:11:01;;;;;;;5.43;1.13;;;;;;;;;;4988190;28;99904;-69
2022/09/02 01:13:37;;;;;;;8.00;0.90;;;;;;;;;;4990001;28;99281;-69
2022/09/02 01:16:09;;;;;;;1.05;1.00;;;;;;;;;;4990866;28;98518;-70
2022/09/02 01:18:36;;;;;;;0.90;0.90;;;;;;;;;;4994284;28;98893;-69
2022/09/02 01:21:03;;;;;;;0.73;0.73;;;;;;;;;;4990761;28;98585;-69
2022/09/02 01:23:30;;;;;;;2.53;1.27;;;;;;;;;;4990369;28;100005;-69
2022/09/02 01:26:00;;;;;;;1.45;1.00;;;;;;;;;;4989589;28;100977;-69
2022/09/02 01:28:27;;;;;;;2.75;1.20;;;;;;;;;;4990007;28;98464;-69
2022/09/02 01:30:54;;;;;;;1.20;1.10;;;;;;;;;;4988659;28;100678;-70
2022/09/02 01:33:22;;;;;;;1.35;1.00;;;;;;;;;;4989073;28;99542;-69
2022/09/02 01:35:51;;;;;;;2.42;1.15;;;;;;;;;;4990090;28;98791;-69
2022/09/02 01:38:19;;;;;;;0.93;0.93;;;;;;;;;;4991055;28;98823;-69
2022/09/02 01:40:46;;;;;;;2.63;0.90;;;;;;;;;;4992249;28;100530;-70
2022/09/02 01:43:18;;;;;;;2.95;1.15;;;;;;;;;;4989674;28;100980;-69
2022/09/02 01:45:47;;;;;;;8.02;1.00;;;;;;;;;;4988507;28;99233;-72
2022/09/02 01:48:15;;;;;;;0.85;0.85;;;;;;;;;;4987600;28;98575;-69
2022/09/02 01:50:50;;;;;;;3.97;1.10;;;;;;;;;;5021902;28;99910;-70
2022/09/02 01:53:16;;;;;;;2.47;1.42;;;;;;;;;;4991264;28;102156;-70
2022/09/02 01:55:43;;;;;;;1.17;1.05;;;;;;;;;;4991955;28;98458;-69
2022/09/02 01:58:10;;;;;;;3.58;1.02;;;;;;;;;;4993866;28;99388;-69
2022/09/02 02:00:37;;;;;;;2.83;1.20;;;;;;;;;;4992023;28;101520;-70
2022/09/02 02:03:03;;;;;;;4.13;1.00;;;;;;;;;;4996068;28;98963;-69
2022/09/02 02:05:30;;;;;;;4.53;1.17;;;;;;;;;;4993164;28;100339;-69
2022/09/02 02:07:57;;;;;;;3.65;1.33;;;;;;;;;;4992600;28;97773;-69
2022/09/02 02:10:23;;;;;;;2.78;1.30;;;;;;;;;;4992898;28;98481;-71
2022/09/02 02:12:50;;;;;;;2.05;1.20;;;;;;;;;;4993948;28;99212;-69
2022/09/02 02:15:19;;;;;;;5.20;1.20;;;;;;;;;;4991865;28;99489;-69
2022/09/02 02:17:45;;;;;;;1.17;1.00;;;;;;;;;;5024307;28;101507;-69
2022/09/02 02:20:14;;;;;;;2.92;1.10;;;;;;;;;;5024686;28;100967;-69
2022/09/02 02:22:42;;;;;;;4.15;1.10;;;;;;;;;;4992804;28;99262;-69
2022/09/02 02:25:09;;;;;;;8.20;1.30;;;;;;;;;;4996511;28;98656;-69
2022/09/02 02:27:36;;;;;;;2.03;1.00;;;;;;;;;;4992065;28;98621;-69
2022/09/02 02:30:05;;;;;;;2.25;0.98;;;;;;;;;;5023740;28;101032;-69
2022/09/02 02:32:32;;;;;;;1.63;1.00;;;;;;;;;;4993210;28;99350;-69
2022/09/02 02:35:00;;;;;;;1.30;1.17;;;;;;;;;;4991748;28;98536;-69
2022/09/02 02:37:27;;;;;;;1.10;1.10;;;;;;;;;;4991344;28;101221;-69
2022/09/02 02:39:56;;;;;;;4.03;1.17;;;;;;;;;;4992066;28;100185;-69
2022/09/02 02:42:24;;;;;;;2.83;1.00;;;;;;;;;;4988691;28;98673;-68
2022/09/02 02:44:51;;;;;;;6.60;1.35;;;;;;;;;;4983198;28;99502;-69
2022/09/02 02:47:17;;;;;;;0.82;0.82;;;;;;;;;;5012064;28;98478;-69
2022/09/02 02:49:44;;;;;;;1.85;1.10;;;;;;;;;;5012692;28;99689;-69
2022/09/02 02:52:11;;;;;;;14.73;1.38;;;;;;;;;;5011835;28;100059;-69
2022/09/02 02:54:38;;;;;;;2.00;1.20;;;;;;;;;;5011380;28;98590;-69
2022/09/02 02:57:05;;;;;;;5.72;1.30;;;;;;;;;;5012040;28;102146;-69
2022/09/02 02:59:32;;;;;;;5.22;1.10;;;;;;;;;;5010173;28;101380;-69
2022/09/02 03:01:58;;;;;;;2.80;1.08;;;;;;;;;;5011847;28;98541;-69
2022/09/02 03:04:25;;;;;;;0.90;0.90;;;;;;;;;;5010054;28;99896;-69
2022/09/02 03:06:52;;;;;;;3.03;1.10;;;;;;;;;;5013315;28;100221;-69
2022/09/02 03:09:19;;;;;;;1.98;1.40;;;;;;;;;;5011171;28;99329;-69
2022/09/02 03:11:46;;;;;;;3.13;0.93;;;;;;;;;;5001072;28;101882;-69
2022/09/02 03:14:12;;;;;;;2.30;1.15;;;;;;;;;;5023684;28;99102;-69
2022/09/02 03:16:40;;;;;;;2.08;1.05;;;;;;;;;;4991085;28;101219;-69
2022/09/02 03:19:06;;;;;;;1.70;1.27;;;;;;;;;;4992183;28;99009;-69
2022/09/02 03:21:33;;;;;;;1.25;1.10;;;;;;;;;;5025023;28;97769;-69
2022/09/02 03:24:05;;;;;;;1.30;1.20;;;;;;;;;;4991418;28;99386;-69
2022/09/02 03:26:32;;;;;;;5.25;1.30;;;;;;;;;;4991398;28;99423;-69
2022/09/02 03:28:58;;;;;;;0.80;0.80;;;;;;;;;;4994911;28;99174;-68
2022/09/02 03:31:25;;;;;;;4.68;1.10;;;;;;;;;;4992277;28;99021;-69
2022/09/02 03:33:53;;;;;;;1.67;1.58;;;;;;;;;;4989978;28;98526;-69
2022/09/02 03:36:26;;;;;;;1.63;1.27;;;;;;;;;;5023800;28;101653;-69
2022/09/02 03:38:53;;;;;;;3.88;1.17;;;;;;;;;;4990031;28;101674;-69
2022/09/02 03:41:20;;;;;;;4.03;1.17;;;;;;;;;;4990370;28;98782;-69
2022/09/02 03:43:47;;;;;;;1.30;1.30;;;;;;;;;;4991932;28;98860;-69
2022/09/02 03:46:14;;;;;;;6.28;1.45;;;;;;;;;;4992429;28;98364;-69
2022/09/02 03:48:40;;;;;;;1.13;1.05;;;;;;;;;;4989772;28;98978;-69
2022/09/02 03:51:10;;;;;;;2.70;1.23;;;;;;;;;;4993639;28;98681;-69
2022/09/02 03:53:37;;;;;;;5.95;1.50;;;;;;;;;;4990356;28;99291;-69
2022/09/02 03:56:05;;;;;;;2.03;1.10;;;;;;;;;;4989861;28;102136;-69
2022/09/02 03:58:33;;;;;;;1.90;1.20;;;;;;;;;;4989668;28;101531;-69
2022/09/02 04:01:01;;;;;;;2.45;1.50;;;;;;;;;;4990464;28;98935;-69
2022/09/02 04:03:27;;;;;;;2.50;1.25;;;;;;;;;;4989903;28;101504;-69
2022/09/02 04:05:53;;;;;;;3.38;1.20;;;;;;;;;;4991279;28;99025;-69
2022/09/02 04:08:23;;;;;;;1.88;1.30;;;;;;;;;;4989505;28;98588;-69
2022/09/02 04:10:51;;;;;;;2.70;1.20;;;;;;;;;;5024470;28;99213;-69
2022/09/02 04:13:17;;;;;;;1.13;1.02;;;;;;;;;;4996068;28;101857;-69
2022/09/02 04:15:46;;;;;;;1.88;1.10;;;;;;;;;;5022592;28;101250;-69
2022/09/02 04:18:16;;;;;;;2.60;1.20;;;;;;;;;;4989513;28;101923;-70
2022/09/02 04:20:42;;;;;;;6.15;1.30;;;;;;;;;;4989843;28;98495;-72
2022/09/02 04:23:10;;;;;;;5.63;1.25;;;;;;;;;;4989461;28;101290;-71
2022/09/02 04:25:40;;;;;;;3.22;1.23;;;;;;;;;;4989699;28;100267;-71
2022/09/02 04:28:08;;;;;;;1.40;0.98;;;;;;;;;;4990671;28;98509;-71
2022/09/02 04:30:37;;;;;;;1.85;1.25;;;;;;;;;;4989573;28;100831;-71
2022/09/02 04:33:04;;;;;;;1.63;1.20;;;;;;;;;;5022972;28;100299;-70
2022/09/02 04:35:31;;;;;;;5.85;1.67;;;;;;;;;;4993904;28;97862;-70
2022/09/02 04:37:57;;;;;;;5.80;1.48;;;;;;;;;;4989948;28;99529;-70
2022/09/02 04:40:24;;;;;;;2.05;1.30;;;;;;;;;;4991752;28;98501;-70
2022/09/02 04:42:52;;;;;;;1.75;1.23;;;;;;;;;;4989334;28;101521;-70
2022/09/02 04:45:21;;;;;;;4.32;1.10;;;;;;;;;;4984217;28;101840;-70
2022/09/02 04:47:55;;;;;;;1.50;1.20;;;;;;;;;;4969819;28;98719;-70
2022/09/02 04:50:21;;;;;;;1.27;1.10;;;;;;;;;;4971386;28;98770;-70
2022/09/02 04:52:56;;;;;;;4.63;1.30;;;;;;;;;;4970899;28;100122;-70
2022/09/02 04:55:24;;;;;;;5.45;1.23;;;;;;;;;;4990020;28;98492;-70
2022/09/02 04:57:51;;;;;;;1.55;1.33;;;;;;;;;;4968652;28;101524;-70
2022/09/02 05:00:18;;;;;;;3.30;1.50;;;;;;;;;;4987075;28;97794;-70
2022/09/02 05:02:46;;;;;;;1.35;1.20;;;;;;;;;;4990250;28;99189;-71
2022/09/02 05:05:13;;;;;;;4.55;1.42;;;;;;;;;;5021656;28;100157;-70
2022/09/02 05:07:40;;;;;;;6.30;1.80;;;;;;;;;;4990538;28;99322;-70
2022/09/02 05:10:07;;;;;;;5.38;1.15;;;;;;;;;;4989569;28;100705;-70
2022/09/02 05:12:39;;;;;;;9.25;1.27;;;;;;;;;;4987956;28;100176;-70
2022/09/02 05:15:07;;;;;;;5.65;1.40;;;;;;;;;;4989572;28;98585;-71
2022/09/02 05:17:35;;;;;;;12.85;1.73;;;;;;;;;;4992598;28;101335;-71
2022/09/02 05:20:03;;;;;;;1.60;1.20;;;;;;;;;;5004534;28;98873;-70
2022/09/02 05:22:31;;;;;;;1.73;1.13;;;;;;;;;;5003163;28;98949;-70
2022/09/02 05:25:00;;;;;;;9.95;1.27;;;;;;;;;;5002447;28;100896;-70
2022/09/02 05:27:27;;;;;;;1.05;1.05;;;;;;;;;;4970288;28;98563;-70
2022/09/02 05:29:55;;;;;;;1.42;1.33;;;;;;;;;;5005830;28;101428;-70
2022/09/02 05:32:22;;;;;;;4.53;1.40;;;;;;;;;;4983475;28;102415;-70
2022/09/02 05:34:49;;;;;;;3.00;1.17;;;;;;;;;;5009893;27;101054;-70
2022/09/02 05:37:16;;;;;;;4.45;1.55;;;;;;;;;;4974560;28;101436;-70
2022/09/02 05:39:43;;;;;;;5.15;1.40;;;;;;;;;;4988587;28;98927;-71
2022/09/02 05:42:09;;;;;;;1.42;1.30;;;;;;;;;;4972977;28;99670;-70
2022/09/02 05:44:37;;;;;;;2.05;1.15;;;;;;;;;;5005582;28;102113;-70
2022/09/02 05:47:06;;;;;;;4.55;1.23;;;;;;;;;;5005523;28;98602;-69
2022/09/02 05:49:32;;;;;;;1.67;1.40;;;;;;;;;;4988989;28;98890;-70
2022/09/02 05:52:04;;;;;;;1.40;1.30;;;;;;;;;;4993383;28;101050;-70
2022/09/02 05:54:38;;;;;;;6.03;1.75;;;;;;;;;;4974569;28;98712;-70
2022/09/02 05:57:09;;;;;;;8.13;1.50;;;;;;;;;;4995165;28;99936;-70
2022/09/02 05:59:41;;;;;;;4.60;1.30;;;;;;;;;;4983945;28;102136;-70
2022/09/02 06:02:11;;;;;;;3.78;1.40;;;;;;;;;;4993634;28;98902;-70
2022/09/02 06:04:39;;;;;;;1.33;1.23;;;;;;;;;;4981910;28;101319;-69
2022/09/02 06:07:07;;;;;;;9.38;1.30;;;;;;;;;;4979520;28;98593;-69
2022/09/02 06:09:37;;;;;;;3.25;1.48;;;;;;;;;;4970881;28;104426;-69
2022/09/02 06:12:04;;;;;;;3.97;1.20;;;;;;;;;;4973433;28;99228;-69
2022/09/02 06:14:33;;;;;;;1.42;1.30;;;;;;;;;;5006207;28;97834;-69
2022/09/02 06:17:00;;;;;;;1.65;1.40;;;;;;;;;;5003945;27;99940;-70
2022/09/02 06:19:34;;;;;;;13.18;1.58;;;;;;;;;;4976441;28;101519;-69
2022/09/02 06:22:02;;;;;;;6.45;1.30;;;;;;;;;;5004385;27;99289;-69
2022/09/02 06:24:31;;;;;;;4.20;1.30;;;;;;;;;;5008564;27;99734;-70
2022/09/02 06:27:06;;;;;;;1.50;1.40;;;;;;;;;;5005553;28;98409;-70
2022/09/02 06:29:36;;;;;;;21.25;1.40;;;;;;;;;;4972471;28;99768;-70
2022/09/02 06:32:05;;;;;;;7.22;1.35;;;;;;;;;;5005052;28;100300;-70
2022/09/02 06:34:34;;;;;;;1.20;1.15;;;;;;;;;;4980059;28;98559;-70
2022/09/02 06:37:01;;;;;;;12.95;1.23;;;;;;;;;;4993286;28;100093;-70
2022/09/02 06:39:30;;;;;;;3.28;1.75;;;;;;;;;;4991529;28;100708;-69
2022/09/02 06:41:57;;;;;;;4.70;1.50;;;;;;;;;;4989234;28;99200;-70
2022/09/02 06:44:28;;;;;;;10.13;1.33;;;;;;;;;;4979262;28;101542;-70
2022/09/02 06:46:58;;;;;;;2.33;1.25;;;;;;;;;;5003076;28;99433;-68
2022/09/02 06:49:26;;;;;;;1.90;1.23;;;;;;;;;;5005625;27;99663;-70
2022/09/02 06:51:55;;;;;;;3.17;1.33;;;;;;;;;;4986924;28;101800;-70
2022/09/02 06:54:27;;;;;;;4.53;1.40;;;;;;;;;;5004872;28;98481;-69
2022/09/02 06:57:04;;;;;;;2.00;1.55;;;;;;;;;;4971142;28;100098;-70
2022/09/02 06:59:32;;;;;;;3.35;1.42;;;;;;;;;;5004856;28;98525;-69
2022/09/02 07:01:59;;;;;;;1.33;1.20;;;;;;;;;;4971506;28;98871;-70
2022/09/02 07:07:16;;;;;;;6.20;1.50;;;;;;;;;;4974383;28;99897;-70
2022/09/02 07:09:49;;;;;;;3.90;1.10;;;;;;;;;;4982110;28;99059;-70
2022/09/02 07:12:18;;;;;;;1.17;1.05;;;;;;;;;;4989848;28;100009;-67
2022/09/02 07:14:54;;;;;;;6.75;1.45;;;;;;;;;;5024291;28;98624;-68
2022/09/02 07:17:26;;;;;;;;;;;;;;;;;;4986638;28;98802;-67
2022/09/02 07:19:59;;;;;;;5.25;1.33;;;;;;;;;;4972801;28;99017;-67
2022/09/02 07:22:28;;;;;;;5.45;1.40;;;;;;;;;;5011748;28;98623;-67
2022/09/02 07:24:54;;;;;;;5.68;1.70;;;;;;;;;;4990927;28;101406;-67
2022/09/02 07:27:23;;;;;;;6.82;1.50;;;;;;;;;;4987542;28;101655;-68
2022/09/02 07:29:50;;;;;;;12.68;1.80;;;;;;;;;;4986795;28;98929;-67
2022/09/02 07:32:17;;;;;;;12.10;1.30;;;;;;;;;;4971163;28;101541;-69
2022/09/02 07:34:43;;;;;;;1.38;1.13;;;;;;;;;;4979650;28;98556;-67
2022/09/02 07:37:11;;;;;;;3.17;1.10;;;;;;;;;;4990541;28;99203;-68
2022/09/02 07:39:42;;;;;;;3.83;1.40;;;;;;;;;;4989367;28;99345;-70
2022/09/02 07:42:10;;;;;;;3.75;1.50;;;;;;;;;;4991170;28;98849;-70
2022/09/02 07:44:37;;;;;;;7.68;1.50;;;;;;;;;;4990663;28;99851;-70
2022/09/02 07:47:05;;;;;;;5.93;1.30;;;;;;;;;;4989845;28;101500;-70
2022/09/02 07:49:34;;;;;;;1.40;1.30;;;;;;;;;;4990710;28;98642;-70
2022/09/02 07:52:21;;;;;;;5.05;1.20;;;;;;;;;;4993807;28;100677;-70
2022/09/02 07:54:48;;;;;;;3.13;1.08;;;;;;;;;;4989981;28;98171;-67
2022/09/02 07:57:15;;;;;;;9.23;1.50;;;;;;;;;;4990786;28;101308;-67
2022/09/02 07:59:45;;;;;;;8.05;1.58;;;;;;;;;;4990065;28;102143;-67
2022/09/02 08:02:13;;;;;;;2.30;1.15;;;;;;;;;;4989336;28;99277;-68
2022/09/02 08:04:40;;;;;;;2.60;1.42;;;;;;;;;;4990600;28;100472;-67
2022/09/02 08:07:06;;;;;;;6.07;1.30;;;;;;;;;;4990264;28;99188;-68
2022/09/02 08:09:32;;;;;;;3.95;1.50;;;;;;;;;;4990703;28;98497;-68
2022/09/02 08:11:59;;;;;;;3.92;1.15;;;;;;;;;;4991302;28;99066;-70
2022/09/02 08:14:27;;;;;;;3.95;1.67;;;;;;;;;;4993869;28;99766;-70
2022/09/02 08:16:55;;;;;;;4.63;1.50;;;;;;;;;;4991190;28;99212;-67
2022/09/02 08:19:22;;;;;;;2.15;1.75;;;;;;;;;;4991468;28;98608;-67
2022/09/02 08:21:49;;;;;;;7.97;1.60;;;;;;;;;;4990484;28;98487;-70
2022/09/02 08:24:16;;;;;;;8.18;1.35;;;;;;;;;;4991489;28;99818;-69
2022/09/02 08:26:42;;;;;;;5.90;1.70;;;;;;;;;;4986343;28;101816;-70
2022/09/02 08:29:09;;;;;;;3.03;1.33;;;;;;;;;;4985070;28;98510;-69
2022/09/02 08:31:35;;;;;;;3.40;1.55;;;;;;;;;;4982085;28;99126;-70
2022/09/02 08:34:02;;;;;;;6.72;1.80;;;;;;;;;;4988059;28;100194;-70
2022/09/02 08:36:28;;;;;;;4.55;1.58;;;;;;;;;;4994019;28;99054;-70
2022/09/02 08:38:55;;;;;;;13.75;1.90;;;;;;;;;;4990378;28;100161;-70
2022/09/02 08:41:23;;;;;;;4.25;1.38;;;;;;;;;;4991126;28;98570;-70
2022/09/02 08:43:54;;;;;;;9.05;1.50;;;;;;;;;;4990247;28;100153;-67
2022/09/02 08:46:24;;;;;;;5.82;2.15;;;;;;;;;;4971159;28;99258;-69
2022/09/02 08:48:52;;;;;;;9.15;1.67;;;;;;;;;;4971621;28;99108;-69
2022/09/02 08:51:22;;;;;;;1.63;1.52;;;;;;;;;;4969832;28;100037;-69
2022/09/02 08:53:50;;;;;;;6.18;2.00;;;;;;;;;;4970744;28;100234;-70
2022/09/02 08:56:17;;;;;;;3.72;1.60;;;;;;;;;;4974639;28;98433;-70
2022/09/02 08:58:49;;;;;;;4.75;1.73;;;;;;;;;;4969873;28;100262;-70
2022/09/02 09:01:29;;;;;;;1.90;1.80;;;;;;;;;;4970673;28;98406;-70
2022/09/02 09:04:01;;;;;;;6.47;1.67;;;;;;;;;;4970022;28;99167;-70
2022/09/02 09:06:34;;;;;;;5.18;1.90;;;;;;;;;;4970805;28;100110;-68
2022/09/02 09:09:07;;;;;;;4.40;1.83;;;;;;;;;;4971615;28;98622;-68
2022/09/02 09:11:43;;;;;;;5.47;1.95;;;;;;;;;;4969997;28;99325;-69
2022/09/02 09:14:15;;;;;;;3.33;1.90;;;;;;;;;;4970479;28;100277;-69
2022/09/02 09:16:51;;;;;;;6.82;2.65;;;;;;;;;;4970388;28;100073;-69
2022/09/02 09:19:32;;;;;;;3.38;1.58;;;;;;;;;;4973306;28;100711;-69
2022/09/02 09:22:02;;;;;;;2.10;1.60;;;;;;;;;;4970736;28;98604;-70
2022/09/02 09:24:38;;;;;;;4.60;1.80;;;;;;;;;;4971095;28;99856;-68
2022/09/02 09:27:08;;;;;;;6.78;1.90;;;;;;;;;;4970105;28;99400;-68
2022/09/02 09:29:35;;;;;;;6.82;1.63;;;;;;;;;;4989025;28;98516;-70
2022/09/02 09:32:02;;;;;;;2.55;1.65;;;;;;;;;;4987842;28;100216;-73
2022/09/02 09:34:47;;;;;;;4.25;1.90;;;;;;;;;;4991610;28;98577;-69
2022/09/02 09:37:26;;;;;;;2.55;1.77;;;;;;;;;;4990514;28;98584;-68
2022/09/02 09:39:58;;;;;;;3.30;1.90;;;;;;;;;;4989360;28;99053;-68
2022/09/02 09:42:35;;;;;;;5.22;1.90;;;;;;;;;;4992949;28;100961;-69
2022/09/02 09:45:28;;;;;;;4.32;1.92;;;;;;;;;;4990456;28;100757;-69
2022/09/02 09:48:13;;;;;;;3.40;1.63;;;;;;;;;;4987571;28;100213;-69
2022/09/02 09:50:40;;;;;;;4.55;2.30;;;;;;;;;;4990305;28;98633;-69
2022/09/02 09:53:13;;;;;;;8.38;2.45;;;;;;;;;;4989565;28;99621;-69
2022/09/02 09:55:49;;;;;;;3.65;2.22;;;;;;;;;;4986014;28;100409;-69
2022/09/02 09:58:15;;;;;;;6.93;2.30;;;;;;;;;;4982137;28;98755;-69
2022/09/02 10:00:42;;;;;;;1.80;1.70;;;;;;;;;;4970381;28;99170;-69
2022/09/02 10:03:18;;;;;;;9.30;2.30;;;;;;;;;;4984021;28;98989;-69
2022/09/02 10:05:44;;;;;;;10.73;2.10;;;;;;;;;;4992121;28;98959;-69
2022/09/02 10:08:16;;;;;;;3.83;2.22;;;;;;;;;;4968993;28;100836;-69
2022/09/02 10:10:42;;;;;;;;;;;;;;;;;;4970275;28;98626;-69
2022/09/02 10:13:19;;;;;;;4.63;2.00;;;;;;;;;;5003565;28;125483;-69
2022/09/02 10:16:04;;;;;;;7.55;2.20;;;;;;;;;;4971554;28;100263;-69
2022/09/02 10:18:42;;;;;;;11.45;2.30;;;;;;;;;;4973667;28;98964;-69
2022/09/02 10:21:14;;;;;;;15.77;2.83;;;;;;;;;;4972746;28;100020;-69
2022/09/02 10:23:50;;;;;;;3.20;2.15;;;;;;;;;;4978563;28;100130;-69
2022/09/02 10:26:24;;;;;;;8.35;2.33;;;;;;;;;;4990445;28;100686;-69
2022/09/02 10:29:01;;;;;;;4.45;2.03;;;;;;;;;;4996300;28;98511;-69
2022/09/02 10:31:47;;;;;;;2.88;2.00;;;;;;;;;;4992806;28;98520;-69
2022/09/02 10:34:32;;;;;;;4.80;1.95;;;;;;;;;;4992716;28;99249;-69
2022/09/02 10:37:05;;;;;;;4.25;2.45;;;;;;;;;;4991589;28;99320;-69
2022/09/02 10:39:46;;;;;;;3.45;1.85;;;;;;;;;;4986935;28;98553;-70
2022/09/02 10:42:22;;;;;;;4.53;1.90;;;;;;;;;;4972695;28;99338;-68
2022/09/02 10:44:58;;;;;;;1.88;1.77;;;;;;;;;;4972010;28;99640;-68
2022/09/02 10:47:37;;;;;;;3.30;1.90;;;;;;;;;;4995276;28;98572;-69
2022/09/02 10:50:04;;;;;;;3.75;2.58;;;;;;;;;;4985082;28;99082;-69
2022/09/02 10:52:50;;;;;;;7.90;1.65;;;;;;;;;;4989705;28;98513;-69
2022/09/02 10:55:38;;;;;;;7.45;2.33;;;;;;;;;;4977851;28;98608;-68
2022/09/02 10:58:07;;;;;;;3.88;2.13;;;;;;;;;;4971018;28;100367;-69
2022/09/02 11:00:36;;;;;;;9.32;1.85;;;;;;;;;;4987907;28;99428;-68
2022/09/02 11:03:02;;;;;;;4.38;1.80;;;;;;;;;;4971538;28;101131;-69
2022/09/02 11:05:44;;;;;;;1.80;1.60;;;;;;;;;;4991735;28;100340;-69
2022/09/02 11:08:17;;;;;;;2.35;1.95;;;;;;;;;;4986747;28;100370;-69
2022/09/02 11:10:59;;;;;;;2.75;1.75;;;;;;;;;;4971402;28;99056;-69
2022/09/02 11:13:35;;;;;;;10.57;1.85;;;;;;;;;;4979097;28;100111;-69
2022/09/02 11:16:05;;;;;;;4.07;2.00;;;;;;;;;;4971826;28;99126;-69
2022/09/02 11:18:31;;;;;;;16.58;2.00;;;;;;;;;;4973077;28;99885;-69
2022/09/02 11:21:08;;;;;;;2.58;1.80;;;;;;;;;;4985324;28;98671;-68
2022/09/02 11:23:40;;;;;;;14.75;1.80;;;;;;;;;;4991201;28;100047;-69
2022/09/02 11:26:26;;;;;;;3.85;1.73;;;;;;;;;;4975195;28;100185;-68
2022/09/02 11:28:53;;;;;;;2.00;1.60;;;;;;;;;;4977437;28;99445;-69
2022/09/02 11:31:31;;;;;;;4.03;1.80;;;;;;;;;;4979184;28;100528;-69
2022/09/02 11:34:13;;;;;;;2.23;1.47;;;;;;;;;;4989304;28;100234;-68
2022/09/02 11:36:40;;;;;;;1.77;1.58;;;;;;;;;;4977288;28;98641;-70
2022/09/02 11:39:12;;;;;;;3.38;1.75;;;;;;;;;;4972051;28;99284;-71
2022/09/02 11:42:06;;;;;;;1.60;1.33;;;;;;;;;;4972089;28;99120;-69
2022/09/02 11:44:55;;;;;;;4.75;1.75;;;;;;;;;;4973117;28;99155;-69
2022/09/02 11:47:41;;;;;;;1.95;1.50;;;;;;;;;;4971103;28;100365;-69
2022/09/02 11:50:18;;;;;;;3.25;1.35;;;;;;;;;;4972571;28;99850;-69
2022/09/02 11:52:52;;;;;;;7.20;1.70;;;;;;;;;;4970960;28;99944;-69
2022/09/02 11:55:21;;;;;;;5.78;1.60;;;;;;;;;;4971912;28;100279;-69
2022/09/02 11:57:52;;;;;;;5.25;1.60;;;;;;;;;;4972477;28;98500;-70
2022/09/02 12:00:34;;;;;;;4.97;1.67;;;;;;;;;;4974406;28;99793;-69
2022/09/02 12:03:01;;;;;;;;;;;;;;;;;;4972251;28;99318;-69
2022/09/02 12:05:48;;;;;;;1.45;1.30;;;;;;;;;;4973671;28;98457;-69
2022/09/02 12:08:27;;;;;;;9.70;1.50;;;;;;;;;;4970772;28;99379;-69
2022/09/02 12:10:58;;;;;;;6.10;1.33;;;;;;;;;;4971875;28;97816;-70
2022/09/02 12:13:32;;;;;;;5.65;1.98;;;;;;;;;;4972228;28;99162;-70
2022/09/02 12:16:11;;;;;;;4.13;1.95;;;;;;;;;;4971299;28;100145;-70
2022/09/02 12:18:41;;;;;;;2.05;1.50;;;;;;;;;;4971740;28;99296;-70
2022/09/02 12:21:17;;;;;;;5.57;1.15;;;;;;;;;;4970942;28;100994;-70
2022/09/02 12:23:52;;;;;;;3.30;1.30;;;;;;;;;;4974492;28;100049;-70
2022/09/02 12:26:20;;;;;;;8.20;1.70;;;;;;;;;;4971547;28;100051;-70
2022/09/02 12:28:47;;;;;;;1.30;1.30;;;;;;;;;;4970246;28;100156;-70
2022/09/02 12:31:17;;;;;;;1.50;1.40;;;;;;;;;;4972076;28;98464;-70
2022/09/02 12:33:48;;;;;;;5.43;1.75;;;;;;;;;;4971465;28;99870;-70
2022/09/02 12:36:34;;;;;;;8.35;2.08;;;;;;;;;;4970709;28;98581;-70
2022/09/02 12:39:19;;;;;;;3.08;1.67;;;;;;;;;;4972080;28;99334;-70
2022/09/02 12:41:49;;;;;;;3.80;1.60;;;;;;;;;;4971131;28;99355;-70
2022/09/02 12:44:26;;;;;;;5.05;1.67;;;;;;;;;;4971565;28;100015;-70
2022/09/02 12:47:25;;;;;;;3.60;1.55;;;;;;;;;;4974411;28;98432;-70
2022/09/02 12:50:17;;;;;;;5.88;1.40;;;;;;;;;;4947076;28;100356;-70
2022/09/02 12:52:49;;;;;;;7.68;1.60;;;;;;;;;;4971377;28;98545;-71
2022/09/02 12:55:25;;;;;;;1.67;1.58;;;;;;;;;;4972057;28;99918;-71
2022/09/02 12:58:04;;;;;;;2.55;1.80;;;;;;;;;;4968495;28;101445;-70
2022/09/02 13:00:36;;;;;;;3.30;1.75;;;;;;;;;;4971670;28;99349;-71
2022/09/02 13:03:31;;;;;;;4.53;2.00;;;;;;;;;;4971494;28;99491;-71
2022/09/02 13:06:06;;;;;;;3.15;2.00;;;;;;;;;;4967186;28;99667;-69
2022/09/02 13:08:51;;;;;;;3.78;1.63;;;;;;;;;;4971292;28;98468;-69
2022/09/02 13:11:24;;;;;;;4.70;1.60;;;;;;;;;;4972540;28;99409;-69
2022/09/02 13:14:05;;;;;;;6.35;1.55;;;;;;;;;;4970376;28;99105;-69
2022/09/02 13:16:37;;;;;;;3.90;1.70;;;;;;;;;;4971309;28;99103;-70
2022/09/02 13:19:06;;;;;;;2.08;1.88;;;;;;;;;;4969975;28;100558;-71
2022/09/02 13:21:48;;;;;;;2.80;1.50;;;;;;;;;;4971259;28;98496;-70
2022/09/02 13:24:15;;;;;;;1.70;1.55;;;;;;;;;;4970891;28;99134;-70
2022/09/02 13:26:44;;;;;;;2.05;1.67;;;;;;;;;;4970317;28;99122;-69
2022/09/02 13:29:31;;;;;;;2.55;2.00;;;;;;;;;;4985447;28;98439;-70
2022/09/02 13:32:00;;;;;;;1.65;1.55;;;;;;;;;;4972785;28;99286;-70
2022/09/02 13:34:27;;;;;;;2.25;1.58;;;;;;;;;;4971029;28;98458;-70
2022/09/02 13:36:53;;;;;;;4.10;1.67;;;;;;;;;;4970269;28;99145;-70
2022/09/02 13:39:24;;;;;;;2.05;1.30;;;;;;;;;;4969784;28;100140;-70
2022/09/02 13:41:50;;;;;;;1.95;1.80;;;;;;;;;;4970612;28;98750;-70
2022/09/02 13:44:25;;;;;;;2.20;1.50;;;;;;;;;;4971117;28;98981;-70
2022/09/02 13:47:02;;;;;;;5.80;1.58;;;;;;;;;;4969473;28;100165;-70
2022/09/02 13:49:35;;;;;;;2.70;1.42;;;;;;;;;;4974084;28;98569;-69
2022/09/02 13:52:05;;;;;;;1.73;1.55;;;;;;;;;;4978022;28;99382;-70
2022/09/02 13:54:32;;;;;;;4.80;1.40;;;;;;;;;;4995852;28;99505;-70
2022/09/02 13:57:00;;;;;;;1.88;1.60;;;;;;;;;;4992141;28;98622;-70
2022/09/02 13:59:30;;;;;;;2.72;1.60;;;;;;;;;;4977271;28;100225;-70
2022/09/02 14:01:56;;;;;;;2.38;1.30;;;;;;;;;;4982891;28;99286;-70
2022/09/02 14:04:23;;;;;;;3.50;1.80;;;;;;;;;;4989202;28;100683;-71
2022/09/02 14:06:51;;;;;;;6.82;1.80;;;;;;;;;;4991508;28;99442;-70
2022/09/02 14:09:19;;;;;;;1.73;1.63;;;;;;;;;;4989480;28;98465;-70
2022/09/02 14:11:47;;;;;;;3.20;1.20;;;;;;;;;;4988643;28;100093;-70
2022/09/02 14:14:15;;;;;;;3.80;1.42;;;;;;;;;;4992188;28;100284;-70
2022/09/02 14:16:41;;;;;;;3.45;1.48;;;;;;;;;;4980980;28;98611;-70
2022/09/02 14:19:13;;;;;;;5.50;1.50;;;;;;;;;;4973766;28;99614;-70
2022/09/02 14:21:44;;;;;;;1.50;1.40;;;;;;;;;;4974381;28;98976;-70
2022/09/02 14:24:11;;;;;;;4.10;1.60;;;;;;;;;;4982370;28;99992;-70
2022/09/02 14:26:41;;;;;;;1.83;1.70;;;;;;;;;;4973449;28;100213;-70
2022/09/02 14:29:11;;;;;;;2.97;1.65;;;;;;;;;;4984790;28;99325;-70
2022/09/02 14:31:37;;;;;;;3.03;1.65;;;;;;;;;;4973280;28;99991;-70
2022/09/02 14:34:23;;;;;;;3.80;1.65;;;;;;;;;;4990970;28;100143;-70
2022/09/02 14:36:49;;;;;;;3.53;1.77;;;;;;;;;;4983619;28;98527;-69
2022/09/02 14:39:17;;;;;;;4.15;1.90;;;;;;;;;;4995894;28;99517;-70
2022/09/02 14:41:46;;;;;;;8.90;1.80;;;;;;;;;;4991845;28;99079;-70
2022/09/02 14:44:12;;;;;;;9.43;1.40;;;;;;;;;;4993420;28;99146;-70
2022/09/02 14:46:46;;;;;;;5.55;1.40;;;;;;;;;;4992455;28;100178;-70
2022/09/02 14:49:21;;;;;;;5.60;1.75;;;;;;;;;;4992151;28;98545;-71
2022/09/02 14:51:49;;;;;;;3.10;1.63;;;;;;;;;;4992081;28;99935;-71
2022/09/02 14:54:35;;;;;;;2.47;1.40;;;;;;;;;;4992388;28;99474;-70
2022/09/02 14:57:01;;;;;;;2.25;1.70;;;;;;;;;;4991997;28;98580;-70
2022/09/02 14:59:28;;;;;;;3.35;1.40;;;;;;;;;;4991883;28;99012;-70
2022/09/02 15:01:55;;;;;;;4.25;1.60;;;;;;;;;;4995376;28;99383;-71